KEDJ

Details ICAO KEDJ
Name BELLEFONTAINE RGNL
Region United States
Timezone America/New_York (UTC-5.0)
Plans Departing 1
Arriving 1
Stats Elevation 1,123 ft / 342 m (AMSL)
Location 40.372315° -83.819017°
Runways 1
Magnetic Variation 6.590° W
Sunrise 2017-12-13 12:51:17 UTC / 2017-12-13 07:51:17 Local
Sunset 2017-12-13 22:10:43 UTC / 2017-12-13 17:10:43 Local
Advertisement - Login to hide

Runways

ID Width Length Bearing (true) Bearing (mag) Surface Threshold Offset Overrun Length
07 100 ft / 30 m 4,991 ft / 1,521 m 69.24° 75.83° Asphalt 0 ft / 0 m 0 ft / 0 m
25 100 ft / 30 m 4,991 ft / 1,521 m 249.25° 255.84° Asphalt 0 ft / 0 m 0 ft / 0 m

Map

Weather


0- 5 10 15 20 25 30 35+ Temperature / ° C

Clouds and Precipitation
Forecast for 2017-12-13 06:00 UTC. Updated 16 minutes ago

Ground ~20,000 ft ~40,000 ft Winds

METAR

KEDJ 130535Z AUTO 30010KT 10SM BKN025 BKN034 OVC041 M08/M12 A2991 RMK AO1

TAF

Not found

Frequencies

Recorded 118.07 MHz AWOS 3
Approach 127.65 MHz DAYTON APP/DEP
Unicom 122.80 MHz CTAF/UNICOM
Warning: Do not use this data for real-world aviation or navigation. No guarantee of current accuracy is given.